Time;durP1;ratioP1;P1;durP2;ratioP2;P2;SDS_P1;SDS_P2;PMS_P1;PMS_P2;Temp;Humidity;BMP_temperature;BMP_pressure;BME280_temperature;BME280_humidity;BME280_pressure;Samples;Min_cycle;Max_cycle;Signal;HPM_P1;HPM_P2
2023/06/03 00:03:16;;;;;;;11.18;3.92;;;10.50;99.90;;;;;;7327822;32;20223;-56
2023/06/03 00:07:18;;;;;;;8.98;3.78;;;10.60;99.90;;;;;;7333652;32;20546;-56
2023/06/03 00:11:19;;;;;;;8.52;4.00;;;10.70;99.90;;;;;;7335049;32;20127;-56
2023/06/03 00:15:21;;;;;;;7.80;3.92;;;10.70;99.90;;;;;;7331458;32;20143;-56
2023/06/03 00:19:23;;;;;;;6.28;4.07;;;10.70;99.90;;;;;;7338814;32;20505;-55
2023/06/03 00:23:25;;;;;;;7.25;3.78;;;10.60;99.90;;;;;;7320665;32;20145;-56
2023/06/03 00:27:27;;;;;;;5.30;3.40;;;10.60;99.90;;;;;;7334073;32;20179;-56
2023/06/03 00:31:29;;;;;;;6.68;3.40;;;10.50;99.90;;;;;;7332944;32;20092;-55
2023/06/03 00:35:32;;;;;;;9.20;3.78;;;10.50;99.90;;;;;;7324659;32;20128;-56
2023/06/03 00:39:33;;;;;;;12.98;3.62;;;10.60;99.90;;;;;;7323390;32;20226;-55
2023/06/03 00:43:35;;;;;;;8.95;3.75;;;10.60;99.90;;;;;;7330591;32;20139;-56
2023/06/03 00:47:38;;;;;;;10.13;3.92;;;10.60;99.90;;;;;;7331937;32;20122;-56
2023/06/03 00:51:40;;;;;;;8.85;3.53;;;10.60;99.90;;;;;;7328687;32;20171;-55
2023/06/03 00:55:42;;;;;;;7.93;3.50;;;10.60;99.90;;;;;;7337899;32;20163;-55
2023/06/03 00:59:44;;;;;;;7.90;3.72;;;10.60;99.90;;;;;;7330138;32;20136;-56
2023/06/03 01:03:47;;;;;;;8.35;3.65;;;10.60;99.90;;;;;;7329709;32;20128;-56
2023/06/03 01:08:07;;;;;;;7.30;3.72;;;10.60;99.90;;;;;;7323260;32;20180;-56
2023/06/03 01:12:24;;;;;;;10.20;4.00;;;10.50;99.90;;;;;;7327708;32;20187;-55
2023/06/03 01:16:30;;;;;;;10.10;4.17;;;10.50;99.90;;;;;;7331853;32;20186;-56
2023/06/03 01:20:33;;;;;;;12.63;5.20;;;10.60;99.90;;;;;;7333715;32;20154;-56
2023/06/03 01:24:35;;;;;;;9.40;4.10;;;10.70;99.90;;;;;;7325742;32;20115;-56
2023/06/03 01:28:38;;;;;;;10.93;4.30;;;10.70;99.90;;;;;;7329676;32;20210;-55
2023/06/03 01:32:42;;;;;;;10.63;4.40;;;10.90;99.90;;;;;;7326144;32;20104;-55
2023/06/03 01:36:44;;;;;;;11.52;4.78;;;11.00;99.90;;;;;;7324001;32;20290;-57
2023/06/03 01:40:46;;;;;;;14.63;5.12;;;10.90;99.90;;;;;;7332290;32;20091;-56
2023/06/03 01:44:48;;;;;;;10.25;4.80;;;11.00;99.90;;;;;;7332030;32;20122;-56
2023/06/03 01:48:50;;;;;;;9.65;4.53;;;11.00;99.90;;;;;;7332224;32;20108;-55
2023/06/03 01:52:52;;;;;;;8.75;4.62;;;11.00;99.90;;;;;;7320729;32;20122;-56
2023/06/03 01:56:55;;;;;;;12.48;4.55;;;10.90;99.90;;;;;;7339472;32;20099;-56
2023/06/03 02:00:57;;;;;;;9.30;4.57;;;10.80;99.90;;;;;;7328998;32;20134;-56
2023/06/03 02:04:59;;;;;;;10.70;4.53;;;10.80;99.90;;;;;;7335622;32;20369;-56
2023/06/03 02:09:00;;;;;;;9.80;4.43;;;10.70;99.90;;;;;;7317667;32;20220;-57
2023/06/03 02:13:02;;;;;;;9.80;4.60;;;10.70;99.90;;;;;;7339826;32;20122;-56
2023/06/03 02:17:05;;;;;;;15.32;5.12;;;10.70;99.90;;;;;;7333408;32;20191;-55
2023/06/03 02:21:07;;;;;;;16.90;6.32;;;10.70;99.90;;;;;;7326757;32;20510;-54
2023/06/03 02:25:09;;;;;;;14.32;5.40;;;10.80;99.90;;;;;;7331608;32;20197;-54
2023/06/03 02:29:11;;;;;;;14.77;5.65;;;10.80;99.90;;;;;;7335872;32;20304;-54
2023/06/03 02:33:13;;;;;;;9.60;5.32;;;10.80;99.90;;;;;;7330841;32;20162;-55
2023/06/03 02:37:17;;;;;;;12.48;5.50;;;10.80;99.90;;;;;;7327188;32;20261;-56
2023/06/03 02:41:41;;;;;;;14.10;5.07;;;10.80;99.90;;;;;;7272016;32;20552;-55
2023/06/03 02:45:45;;;;;;;7.72;4.90;;;10.80;99.90;;;;;;7274050;32;20556;-56
2023/06/03 02:49:47;;;;;;;10.02;5.00;;;10.80;99.90;;;;;;7270758;32;20131;-54
2023/06/03 02:53:50;;;;;;;11.05;5.28;;;10.80;99.90;;;;;;7278725;32;20834;-55
2023/06/03 02:57:51;;;;;;;14.57;5.40;;;10.80;99.90;;;;;;7286399;32;20573;-54
2023/06/03 03:01:53;;;;;;;11.35;5.20;;;10.70;99.90;;;;;;7329137;32;20266;-54
2023/06/03 03:05:58;;;;;;;13.90;5.68;;;10.70;99.90;;;;;;7324636;32;20158;-54
2023/06/03 03:09:59;;;;;;;12.30;5.45;;;10.70;99.90;;;;;;7331022;32;20256;-54
2023/06/03 03:14:02;;;;;;;12.10;5.85;;;10.60;99.90;;;;;;7333283;32;20103;-54
2023/06/03 03:18:04;;;;;;;16.10;5.70;;;10.70;99.90;;;;;;7337338;32;20344;-54
2023/06/03 03:22:06;;;;;;;11.63;5.55;;;10.60;99.90;;;;;;7332515;32;20099;-54
2023/06/03 03:26:08;;;;;;;11.40;5.50;;;10.60;99.90;;;;;;7327736;32;20149;-55
2023/06/03 03:30:10;;;;;;;11.63;6.03;;;10.60;99.90;;;;;;7337578;32;20256;-55
2023/06/03 03:34:14;;;;;;;13.13;5.72;;;10.50;99.90;;;;;;7314930;32;20130;-54
2023/06/03 03:38:17;;;;;;;13.50;6.03;;;10.50;99.90;;;;;;7336392;32;20175;-55
2023/06/03 03:42:19;;;;;;;11.93;5.60;;;10.50;99.90;;;;;;7316352;32;20191;-56
2023/06/03 03:46:21;;;;;;;9.75;5.55;;;10.40;99.90;;;;;;7329869;32;20312;-55
2023/06/03 03:50:44;;;;;;;12.93;6.32;;;10.40;99.90;;;;;;7336243;32;20096;-55
2023/06/03 03:54:46;;;;;;;13.48;5.93;;;10.40;99.90;;;;;;7329246;32;20676;-55
2023/06/03 03:58:49;;;;;;;12.10;5.62;;;10.40;99.90;;;;;;7330849;32;20333;-55
2023/06/03 04:02:53;;;;;;;13.55;5.72;;;10.40;99.90;;;;;;7325364;32;20237;-56
2023/06/03 04:06:55;;;;;;;11.30;5.85;;;10.30;99.90;;;;;;7321068;32;20129;-56
2023/06/03 04:11:00;;;;;;;14.05;5.85;;;10.30;99.90;;;;;;7332178;32;20130;-55
2023/06/03 04:15:02;;;;;;;11.02;5.45;;;10.40;99.90;;;;;;7332485;32;20583;-56
2023/06/03 04:19:09;;;;;;;11.38;5.82;;;10.40;99.90;;;;;;7326882;32;20242;-55
2023/06/03 04:23:16;;;;;;;11.65;5.47;;;10.40;99.90;;;;;;7305869;32;20118;-55
2023/06/03 04:27:17;;;;;;;12.18;5.30;;;10.50;99.90;;;;;;7329045;32;20108;-55
2023/06/03 04:31:19;;;;;;;15.85;5.18;;;10.60;99.90;;;;;;7328948;32;20715;-56
2023/06/03 04:35:21;;;;;;;8.40;4.85;;;10.70;99.90;;;;;;7331386;32;20200;-55
2023/06/03 04:39:22;;;;;;;14.07;4.93;;;11.00;99.90;;;;;;7327466;32;20227;-55
2023/06/03 04:43:26;;;;;;;11.93;4.53;;;11.20;99.90;;;;;;7318367;32;20475;-54
2023/06/03 04:47:28;;;;;;;7.60;4.35;;;11.40;99.90;;;;;;7325244;32;20122;-55
2023/06/03 04:51:33;;;;;;;9.52;4.53;;;11.50;99.90;;;;;;7328341;32;20123;-55
2023/06/03 04:55:35;;;;;;;11.75;4.60;;;11.70;99.90;;;;;;7329443;32;20206;-56
2023/06/03 04:59:36;;;;;;;8.00;4.37;;;11.70;99.90;;;;;;7332121;32;20182;-56
2023/06/03 05:03:38;;;;;;;10.98;5.20;;;11.70;99.90;;;;;;7330538;32;20121;-55
2023/06/03 05:07:40;;;;;;;10.32;4.55;;;11.60;99.90;;;;;;7321613;32;20119;-55
2023/06/03 05:11:43;;;;;;;7.32;4.37;;;12.00;99.90;;;;;;7308341;32;20784;-55
2023/06/03 05:15:45;;;;;;;10.88;4.70;;;12.00;99.90;;;;;;7325522;32;20116;-56
2023/06/03 05:19:47;;;;;;;10.05;4.57;;;12.20;99.90;;;;;;7328031;32;20903;-56
2023/06/03 05:23:49;;;;;;;10.32;4.35;;;12.90;99.90;;;;;;7325761;32;20225;-55
2023/06/03 05:27:50;;;;;;;9.48;3.92;;;12.70;99.90;;;;;;7320977;32;20106;-56
2023/06/03 05:32:05;;;;;;;10.00;3.90;;;13.40;99.90;;;;;;7325756;32;20170;-55
2023/06/03 05:36:08;;;;;;;8.02;3.30;;;13.40;99.90;;;;;;7326926;32;20186;-56
2023/06/03 05:40:10;;;;;;;10.15;3.33;;;13.50;99.90;;;;;;7325398;32;20175;-55
2023/06/03 05:44:12;;;;;;;7.87;3.53;;;13.40;99.90;;;;;;7327354;32;20936;-54
2023/06/03 05:48:14;;;;;;;6.05;3.15;;;13.60;99.90;;;;;;7328531;32;20107;-55
2023/06/03 05:52:15;;;;;;;7.32;3.53;;;13.90;99.90;;;;;;7323361;32;20570;-55
2023/06/03 05:56:17;;;;;;;9.15;2.92;;;14.40;99.90;;;;;;7315182;32;20128;-56
2023/06/03 06:00:19;;;;;;;6.68;2.70;;;14.60;99.90;;;;;;7308277;32;20209;-56
2023/06/03 06:04:21;;;;;;;7.82;2.80;;;14.80;99.90;;;;;;7323968;32;20158;-56
2023/06/03 06:08:23;;;;;;;5.68;2.85;;;15.10;99.90;;;;;;7327154;32;20186;-56
2023/06/03 06:12:25;;;;;;;6.60;2.50;;;15.80;99.90;;;;;;7322330;32;20121;-57
2023/06/03 06:16:26;;;;;;;4.53;2.50;;;15.80;99.90;;;;;;7305278;32;20201;-57
2023/06/03 06:20:28;;;;;;;7.80;2.50;;;15.70;99.90;;;;;;7305266;32;20252;-56
2023/06/03 06:24:30;;;;;;;8.02;2.87;;;16.00;99.90;;;;;;7314985;32;20198;-56
2023/06/03 06:28:32;;;;;;;7.82;2.42;;;16.40;99.90;;;;;;7322531;32;20827;-56
2023/06/03 06:32:47;;;;;;;6.20;2.25;;;17.00;99.90;;;;;;7321859;32;20655;-56
2023/06/03 06:36:49;;;;;;;5.75;1.98;;;16.90;99.90;;;;;;7317525;32;20431;-56
2023/06/03 06:40:53;;;;;;;4.32;2.40;;;17.00;99.90;;;;;;7327592;32;20119;-55
2023/06/03 06:44:55;;;;;;;4.50;2.10;;;17.00;99.90;;;;;;7328718;32;20091;-56
2023/06/03 06:48:58;;;;;;;8.55;2.03;;;17.60;99.90;;;;;;7328417;32;20492;-56
2023/06/03 06:53:01;;;;;;;6.12;1.90;;;17.30;99.90;;;;;;7324903;32;20226;-56
2023/06/03 06:57:05;;;;;;;5.95;1.60;;;17.10;99.90;;;;;;7311403;32;20244;-56
2023/06/03 07:01:07;;;;;;;3.90;1.98;;;17.40;99.90;;;;;;7324206;32;20474;-56
2023/06/03 07:05:09;;;;;;;7.40;1.40;;;18.40;99.90;;;;;;7328166;32;20677;-56
2023/06/03 07:09:11;;;;;;;5.50;1.30;;;17.50;99.90;;;;;;7333017;32;20135;-56
2023/06/03 07:13:15;;;;;;;6.97;1.45;;;17.80;99.90;;;;;;7327305;32;20107;-55
2023/06/03 07:17:16;;;;;;;5.00;1.67;;;17.00;99.90;;;;;;7321515;32;20124;-56
2023/06/03 07:21:23;;;;;;;6.00;1.40;;;17.10;99.90;;;;;;7323930;32;21080;-57
2023/06/03 07:25:44;;;;;;;4.93;1.60;;;17.20;99.90;;;;;;7329606;32;20121;-57
2023/06/03 07:29:46;;;;;;;3.15;1.35;;;16.90;99.90;;;;;;7329218;32;20564;-61
2023/06/03 07:33:50;;;;;;;7.37;1.75;;;16.90;99.90;;;;;;7328109;32;20258;-57
2023/06/03 07:37:52;;;;;;;4.35;1.48;;;16.90;99.90;;;;;;7329138;32;20104;-56
2023/06/03 07:41:54;;;;;;;5.47;1.50;;;16.80;99.90;;;;;;7332436;32;20848;-55
2023/06/03 07:45:57;;;;;;;7.78;1.58;;;16.90;99.90;;;;;;7309687;32;20131;-56
2023/06/03 07:50:01;;;;;;;5.10;1.23;;;17.10;99.90;;;;;;7334516;32;20206;-55
2023/06/03 07:54:04;;;;;;;8.27;1.30;;;16.90;99.90;;;;;;7330680;32;20645;-56
2023/06/03 07:58:09;;;;;;;3.97;1.20;;;16.50;99.90;;;;;;7331995;32;20182;-56
2023/06/03 08:02:11;;;;;;;4.18;1.30;;;16.90;99.90;;;;;;7322980;32;20919;-56
2023/06/03 08:06:13;;;;;;;3.85;1.17;;;17.10;99.90;;;;;;7328485;32;20182;-56
2023/06/03 08:10:24;;;;;;;3.83;1.02;;;17.00;99.90;;;;;;7323178;32;20242;-54
2023/06/03 08:14:26;;;;;;;3.67;1.10;;;17.60;99.90;;;;;;7337434;32;20505;-57
2023/06/03 08:18:47;;;;;;;2.55;0.88;;;17.80;99.90;;;;;;7324307;32;20139;-54
2023/06/03 08:22:49;;;;;;;5.10;1.02;;;17.90;99.20;;;;;;7330460;32;20463;-56
2023/06/03 08:26:51;;;;;;;4.43;1.02;;;17.90;98.40;;;;;;7330003;32;20131;-56
2023/06/03 08:30:54;;;;;;;4.53;1.00;;;18.30;99.30;;;;;;7320877;32;20127;-56
2023/06/03 08:34:55;;;;;;;3.20;0.93;;;18.90;97.20;;;;;;7321953;32;20518;-56
2023/06/03 08:38:58;;;;;;;6.07;1.17;;;18.90;94.10;;;;;;7326906;32;20111;-56
2023/06/03 08:43:03;;;;;;;3.10;0.80;;;19.00;94.20;;;;;;7328691;32;20172;-57
2023/06/03 08:47:22;;;;;;;7.12;5.78;;;19.40;94.10;;;;;;7320508;32;20400;-56
2023/06/03 08:51:24;;;;;;;1.35;0.85;;;19.10;93.00;;;;;;7328374;32;20842;-55
2023/06/03 08:55:27;;;;;;;3.28;0.80;;;19.50;92.70;;;;;;7330141;32;20104;-54
2023/06/03 08:59:30;;;;;;;7.05;1.10;;;19.70;92.70;;;;;;7326607;32;20245;-56
2023/06/03 09:03:33;;;;;;;7.55;1.20;;;20.20;87.80;;;;;;7324679;32;20232;-55
2023/06/03 09:07:37;;;;;;;5.68;1.05;;;19.70;90.60;;;;;;7317285;32;20099;-56
2023/06/03 09:11:39;;;;;;;2.83;0.70;;;20.20;90.70;;;;;;7324681;32;20210;-55
2023/06/03 09:15:42;;;;;;;8.98;1.20;;;20.40;87.10;;;;;;7320963;32;20100;-56
2023/06/03 09:19:46;;;;;;;5.65;1.20;;;20.90;85.60;;;;;;7325598;32;20117;-55
2023/06/03 09:23:47;;;;;;;3.03;0.88;;;20.20;82.80;;;;;;7328912;32;20742;-55
2023/06/03 09:27:50;;;;;;;2.72;0.85;;;20.30;84.40;;;;;;7313231;32;20095;-55
2023/06/03 09:31:52;;;;;;;3.37;0.90;;;20.20;82.90;;;;;;7327658;32;20570;-55
2023/06/03 09:36:08;;;;;;;10.75;1.10;;;20.20;79.20;;;;;;7322451;32;20234;-55
2023/06/03 09:40:27;;;;;;;4.37;1.00;;;20.40;80.50;;;;;;7325371;32;20146;-56
2023/06/03 09:44:43;;;;;;;7.62;1.00;;;20.40;80.60;;;;;;7311646;32;20134;-55
2023/06/03 09:48:44;;;;;;;4.53;1.02;;;20.50;79.00;;;;;;7320814;32;20124;-56
2023/06/03 09:52:46;;;;;;;1.80;0.90;;;21.30;80.90;;;;;;7330621;32;20126;-55
2023/06/03 09:56:48;;;;;;;6.68;0.98;;;21.10;77.80;;;;;;7330016;32;20860;-56
2023/06/03 10:00:51;;;;;;;3.58;1.00;;;21.40;77.30;;;;;;7311885;32;20091;-56
2023/06/03 10:04:53;;;;;;;3.42;0.90;;;22.10;74.10;;;;;;7328061;32;20663;-56
2023/06/03 10:08:55;;;;;;;2.50;1.08;;;22.00;74.50;;;;;;7333536;32;20727;-56
2023/06/03 10:12:57;;;;;;;7.70;1.00;;;22.00;71.70;;;;;;7324810;32;20179;-55
2023/06/03 10:17:03;;;;;;;3.47;1.10;;;22.70;74.00;;;;;;7333270;32;20125;-55
2023/06/03 10:21:10;;;;;;;6.45;1.12;;;21.90;70.20;;;;;;7326019;32;20099;-54
2023/06/03 10:25:12;;;;;;;;;;;22.10;72.20;;;;;;7330395;32;20226;-56
2023/06/03 10:29:15;;;;;;;3.25;1.10;;;22.70;74.60;;;;;;7318086;32;20007;-57
2023/06/03 10:33:18;;;;;;;3.33;0.98;;;23.30;69.20;;;;;;7315040;32;20180;-55
2023/06/03 10:37:22;;;;;;;3.55;0.80;;;22.90;72.20;;;;;;7334883;32;20164;-55
2023/06/03 10:41:25;;;;;;;2.58;1.10;;;23.40;69.30;;;;;;7324872;32;20116;-55
2023/06/03 10:45:27;;;;;;;3.97;1.20;;;22.40;66.80;;;;;;7326329;32;20108;-56
2023/06/03 10:49:37;;;;;;;7.85;1.40;;;23.00;71.40;;;;;;7325108;32;20100;-58
2023/06/03 10:54:07;;;;;;;4.05;1.00;;;22.70;67.80;;;;;;7323968;32;20262;-58
2023/06/03 10:58:14;;;;;;;6.60;1.55;;;23.00;69.30;;;;;;7334204;32;20628;-57
2023/06/03 11:02:16;;;;;;;4.57;1.25;;;23.00;65.70;;;;;;7324297;32;20138;-58
2023/06/03 11:06:26;;;;;;;3.60;1.00;;;22.70;67.50;;;;;;7325520;32;20155;-57
2023/06/03 11:10:41;;;;;;;4.68;1.40;;;22.70;67.00;;;;;;7324572;32;20269;-58
2023/06/03 11:14:48;;;;;;;5.07;1.42;;;23.00;66.40;;;;;;7325127;32;20175;-55
2023/06/03 11:19:29;;;;;;;5.05;1.50;;;22.40;66.00;;;;;;7326986;32;20087;-55
2023/06/03 11:23:48;;;;;;;6.55;1.95;;;22.60;67.80;;;;;;7326470;32;20168;-56
2023/06/03 11:27:50;;;;;;;6.28;1.65;;;23.10;65.70;;;;;;7315676;32;20202;-56
2023/06/03 11:32:14;;;;;;;6.20;2.78;;;23.40;69.70;;;;;;7324631;32;20108;-56
2023/06/03 11:36:50;;;;;;;6.90;1.20;;;23.40;63.80;;;;;;7314318;32;20844;-57
2023/06/03 11:40:52;;;;;;;2.70;1.00;;;23.80;62.50;;;;;;7327902;32;20220;-56
2023/06/03 11:44:53;;;;;;;2.28;1.17;;;24.20;65.40;;;;;;7322615;32;20096;-54
2023/06/03 11:48:55;;;;;;;4.15;1.10;;;24.00;61.80;;;;;;7321547;32;20176;-57
2023/06/03 11:52:58;;;;;;;4.05;1.17;;;22.90;61.10;;;;;;7322432;32;20219;-57
2023/06/03 11:57:02;;;;;;;4.65;1.10;;;22.70;63.00;;;;;;7327936;32;20108;-56
2023/06/03 12:01:08;;;;;;;5.82;1.20;;;23.10;61.90;;;;;;7329936;32;20123;-55
2023/06/03 12:05:10;;;;;;;5.82;1.17;;;23.50;63.70;;;;;;7321672;32;20862;-55
2023/06/03 12:09:19;;;;;;;3.92;1.20;;;23.80;63.60;;;;;;7336219;32;20301;-57
2023/06/03 12:13:21;;;;;;;2.40;1.00;;;23.80;59.50;;;;;;7323913;32;20214;-57
2023/06/03 12:17:25;;;;;;;2.67;0.95;;;25.00;59.70;;;;;;7327277;32;20112;-57
2023/06/03 12:21:28;;;;;;;7.00;1.12;;;26.00;56.90;;;;;;7310860;32;20290;-57
2023/06/03 12:25:32;;;;;;;4.40;1.15;;;26.30;56.10;;;;;;7330656;32;20940;-56
2023/06/03 12:29:43;;;;;;;4.20;1.00;;;25.30;54.80;;;;;;7323643;32;20154;-56
2023/06/03 12:33:45;;;;;;;4.30;1.23;;;26.30;55.70;;;;;;7308168;32;20238;-57
2023/06/03 12:37:47;;;;;;;4.00;1.00;;;25.70;56.20;;;;;;7317541;32;20100;-57
2023/06/03 12:41:53;;;;;;;2.58;0.90;;;27.00;54.50;;;;;;7327549;32;20250;-55
2023/06/03 12:46:12;;;;;;;3.27;1.23;;;26.50;52.30;;;;;;7322883;32;20545;-57
2023/06/03 12:50:14;;;;;;;5.47;1.52;;;26.50;51.30;;;;;;7328813;32;20153;-56
2023/06/03 12:54:16;;;;;;;4.97;2.30;;;26.10;52.50;;;;;;7328422;32;20173;-57
2023/06/03 12:58:19;;;;;;;5.82;0.98;;;27.40;51.60;;;;;;7332503;32;20780;-57
2023/06/03 13:02:21;;;;;;;2.35;1.20;;;27.00;52.50;;;;;;7329608;32;20150;-57
2023/06/03 13:06:24;;;;;;;2.28;1.08;;;25.70;51.80;;;;;;7323609;32;20100;-56
2023/06/03 13:10:25;;;;;;;2.85;0.93;;;24.40;54.20;;;;;;7329512;32;20163;-57
2023/06/03 13:14:27;;;;;;;2.90;0.85;;;24.80;52.80;;;;;;7327360;32;20178;-57
2023/06/03 13:18:29;;;;;;;5.50;3.33;;;24.70;53.80;;;;;;7311827;32;20229;-56
2023/06/03 13:22:32;;;;;;;3.83;1.73;;;24.90;54.20;;;;;;7326180;32;20264;-56
2023/06/03 13:26:34;;;;;;;4.05;0.90;;;24.50;53.40;;;;;;7328468;32;20190;-57
2023/06/03 13:30:36;;;;;;;3.60;1.05;;;23.00;54.80;;;;;;7305362;32;20282;-57
2023/06/03 13:34:39;;;;;;;3.28;0.90;;;24.10;54.20;;;;;;7326311;32;20111;-57
2023/06/03 13:38:40;;;;;;;4.72;1.10;;;24.60;55.20;;;;;;7320810;32;20110;-55
2023/06/03 13:42:43;;;;;;;4.82;0.90;;;24.60;54.40;;;;;;7324768;32;20327;-57
2023/06/03 13:46:45;;;;;;;4.57;1.50;;;24.20;54.00;;;;;;7330982;32;20099;-56
2023/06/03 13:50:49;;;;;;;2.53;1.10;;;23.50;53.50;;;;;;7333712;32;20117;-56
2023/06/03 13:54:50;;;;;;;5.00;1.33;;;23.30;54.70;;;;;;7334327;32;20187;-56
2023/06/03 13:58:52;;;;;;;3.15;1.10;;;23.60;54.60;;;;;;7332361;32;20127;-56
2023/06/03 14:02:54;;;;;;;5.07;1.83;;;24.00;54.80;;;;;;7330588;32;20122;-55
2023/06/03 14:06:59;;;;;;;6.45;1.50;;;24.40;52.00;;;;;;7333844;32;20601;-57
2023/06/03 14:11:00;;;;;;;2.65;1.12;;;25.90;50.20;;;;;;7331361;32;20159;-56
2023/06/03 14:15:03;;;;;;;9.50;2.95;;;26.40;50.80;;;;;;7315720;32;20189;-58
2023/06/03 14:19:05;;;;;;;4.05;2.67;;;26.40;48.70;;;;;;7334477;32;20501;-57
2023/06/03 14:23:07;;;;;;;5.00;1.25;;;26.90;48.70;;;;;;7332179;32;20128;-59
2023/06/03 14:27:09;;;;;;;3.25;1.65;;;26.60;48.10;;;;;;7330836;32;20116;-58
2023/06/03 14:31:11;;;;;;;4.57;1.25;;;26.20;49.90;;;;;;7331592;32;20088;-57
2023/06/03 14:35:16;;;;;;;3.45;0.95;;;25.70;48.30;;;;;;7327289;32;20253;-58
2023/06/03 14:39:18;;;;;;;4.28;1.05;;;25.70;49.40;;;;;;7329559;32;20138;-58
2023/06/03 14:43:20;;;;;;;5.03;1.20;;;24.50;50.00;;;;;;7316880;32;20202;-55
2023/06/03 14:47:21;;;;;;;3.35;0.85;;;25.00;50.20;;;;;;7327706;32;20119;-56
2023/06/03 14:51:24;;;;;;;4.00;0.90;;;24.30;48.50;;;;;;7327119;32;20435;-60
2023/06/03 14:55:26;;;;;;;3.15;0.73;;;24.80;51.10;;;;;;7329107;32;20096;-59
2023/06/03 14:59:28;;;;;;;2.95;0.65;;;24.30;49.70;;;;;;7332815;32;20134;-58
2023/06/03 15:03:29;;;;;;;2.35;1.00;;;24.50;48.30;;;;;;7322042;32;20446;-57
2023/06/03 15:07:31;;;;;;;2.47;0.93;;;24.70;47.40;;;;;;7328403;32;20107;-57
2023/06/03 15:11:33;;;;;;;1.77;0.73;;;24.70;47.90;;;;;;7327298;32;20103;-56
2023/06/03 15:15:35;;;;;;;1.40;0.80;;;25.00;48.60;;;;;;7329008;32;20175;-57
2023/06/03 15:19:37;;;;;;;6.10;1.02;;;23.80;47.20;;;;;;7327361;32;20153;-57
2023/06/03 15:23:39;;;;;;;2.72;0.68;;;22.70;49.50;;;;;;7332516;32;20204;-57
2023/06/03 15:27:41;;;;;;;1.60;0.85;;;22.30;51.50;;;;;;7324234;32;20146;-56
2023/06/03 15:31:42;;;;;;;2.90;0.80;;;21.70;51.10;;;;;;7325697;32;20282;-56
2023/06/03 15:35:44;;;;;;;2.95;0.73;;;21.60;52.50;;;;;;7322837;32;20232;-57
2023/06/03 15:39:46;;;;;;;2.42;0.70;;;21.50;52.20;;;;;;7315794;32;20323;-59
2023/06/03 15:43:53;;;;;;;1.33;0.90;;;21.30;53.50;;;;;;7325809;32;20635;-57
2023/06/03 15:47:55;;;;;;;;;;;21.40;53.20;;;;;;7330829;32;20211;-58
2023/06/03 15:51:57;;;;;;;2.08;0.80;;;21.40;53.00;;;;;;7327374;32;20018;-56
2023/06/03 15:55:59;;;;;;;1.98;0.82;;;21.40;52.60;;;;;;7329987;32;20108;-57
2023/06/03 16:00:01;;;;;;;4.72;0.93;;;21.10;52.10;;;;;;7324380;32;20108;-56
2023/06/03 16:04:03;;;;;;;4.10;0.80;;;21.10;53.00;;;;;;7326117;32;20498;-56
2023/06/03 16:08:05;;;;;;;2.70;0.80;;;21.20;53.80;;;;;;7331881;32;20131;-57
2023/06/03 16:12:07;;;;;;;1.50;0.73;;;21.30;53.40;;;;;;7337618;32;20434;-56
2023/06/03 16:16:09;;;;;;;4.03;0.85;;;21.00;51.90;;;;;;7322685;32;20104;-56
2023/06/03 16:20:12;;;;;;;2.17;0.68;;;21.00;54.10;;;;;;7327904;32;20103;-56
2023/06/03 16:24:14;;;;;;;4.05;0.80;;;21.10;52.50;;;;;;7328299;32;20103;-56
2023/06/03 16:28:16;;;;;;;2.80;0.80;;;21.00;52.70;;;;;;7323761;32;20118;-56
2023/06/03 16:32:18;;;;;;;1.40;0.57;;;21.00;52.50;;;;;;7323947;32;20256;-57
2023/06/03 16:36:20;;;;;;;2.80;0.80;;;21.10;50.70;;;;;;7332591;32;20143;-57
2023/06/03 16:40:22;;;;;;;3.42;0.68;;;20.90;52.20;;;;;;7322173;32;20099;-57
2023/06/03 16:44:24;;;;;;;2.72;0.68;;;20.80;51.90;;;;;;7333563;32;20226;-53
2023/06/03 16:48:25;;;;;;;3.87;0.70;;;20.80;52.60;;;;;;7329174;32;20846;-56
2023/06/03 16:52:27;;;;;;;2.58;0.85;;;20.70;53.40;;;;;;7331455;32;20737;-56
2023/06/03 16:56:30;;;;;;;1.27;0.62;;;20.60;52.30;;;;;;7318967;32;20245;-56
2023/06/03 17:00:32;;;;;;;2.00;0.82;;;20.40;53.40;;;;;;7318897;32;20198;-55
2023/06/03 17:04:34;;;;;;;1.92;0.65;;;20.50;53.30;;;;;;7323957;32;20116;-55
2023/06/03 17:08:36;;;;;;;1.00;0.55;;;20.30;53.70;;;;;;7332545;32;20191;-57
2023/06/03 17:12:37;;;;;;;2.45;0.60;;;20.30;53.90;;;;;;7321604;32;20114;-57
2023/06/03 17:16:42;;;;;;;4.78;0.70;;;20.20;54.70;;;;;;7328341;32;20103;-56
2023/06/03 17:20:44;;;;;;;2.58;1.05;;;20.40;54.90;;;;;;7332057;32;20123;-56
2023/06/03 17:24:46;;;;;;;4.28;2.90;;;20.30;53.60;;;;;;7330564;32;20486;-57
2023/06/03 17:28:47;;;;;;;6.07;1.80;;;20.20;53.00;;;;;;7312404;32;20131;-57
2023/06/03 17:32:49;;;;;;;0.93;0.52;;;20.00;53.50;;;;;;7327036;32;20261;-57
2023/06/03 17:36:51;;;;;;;2.33;0.73;;;19.90;54.00;;;;;;7324942;32;20212;-57
2023/06/03 17:40:53;;;;;;;3.85;0.90;;;19.80;53.90;;;;;;7330371;32;20199;-57
2023/06/03 17:44:58;;;;;;;2.95;0.70;;;19.70;53.70;;;;;;7324661;32;20099;-56
2023/06/03 17:49:00;;;;;;;2.97;0.77;;;19.70;53.80;;;;;;7320397;32;20416;-57
2023/06/03 17:53:01;;;;;;;1.37;0.90;;;19.60;54.10;;;;;;7320421;32;20210;-57
2023/06/03 17:57:05;;;;;;;3.00;0.88;;;19.70;54.70;;;;;;7316052;32;20392;-56
2023/06/03 18:01:07;;;;;;;1.55;0.62;;;19.70;54.30;;;;;;7315249;32;20177;-56
2023/06/03 18:05:10;;;;;;;3.67;0.90;;;19.50;55.40;;;;;;7310542;32;20506;-56
2023/06/03 18:09:11;;;;;;;3.33;0.80;;;19.50;56.60;;;;;;7327171;32;20323;-56
2023/06/03 18:13:13;;;;;;;11.18;6.40;;;19.50;56.10;;;;;;7317932;32;20263;-55
2023/06/03 18:17:15;;;;;;;2.47;0.93;;;19.50;55.80;;;;;;7326390;32;20323;-56
2023/06/03 18:21:17;;;;;;;4.18;0.80;;;19.40;56.80;;;;;;7323040;32;20141;-56
2023/06/03 18:25:20;;;;;;;2.83;0.80;;;19.30;56.80;;;;;;7323471;32;20221;-56
2023/06/03 18:29:24;;;;;;;2.67;0.80;;;19.30;55.80;;;;;;7328912;32;20553;-55
2023/06/03 18:33:26;;;;;;;2.60;0.80;;;19.20;56.20;;;;;;7322652;32;20119;-55
2023/06/03 18:37:28;;;;;;;4.32;0.62;;;18.90;57.50;;;;;;7330736;32;20731;-56
2023/06/03 18:41:30;;;;;;;3.12;0.88;;;18.90;56.80;;;;;;7333692;32;20153;-56
2023/06/03 18:45:32;;;;;;;3.20;0.73;;;18.90;57.50;;;;;;7333207;32;20220;-54
2023/06/03 18:49:33;;;;;;;2.75;0.68;;;18.70;57.60;;;;;;7329537;32;20230;-55
2023/06/03 18:53:35;;;;;;;2.37;0.60;;;18.50;57.80;;;;;;7334002;32;20209;-56
2023/06/03 18:57:37;;;;;;;4.75;0.80;;;18.50;57.90;;;;;;7327210;32;20369;-55
2023/06/03 19:01:41;;;;;;;1.80;0.70;;;18.20;58.30;;;;;;7325811;32;20107;-56
2023/06/03 19:05:43;;;;;;;1.33;0.70;;;18.20;58.40;;;;;;7330833;32;20907;-55
2023/06/03 19:09:45;;;;;;;3.30;0.77;;;18.00;58.80;;;;;;7332810;32;20107;-55
2023/06/03 19:13:48;;;;;;;3.08;0.80;;;17.90;58.90;;;;;;7336612;32;20099;-55
2023/06/03 19:17:49;;;;;;;5.22;0.55;;;18.00;59.00;;;;;;7327063;32;20541;-56
2023/06/03 19:21:51;;;;;;;4.07;1.80;;;17.70;60.10;;;;;;7318284;32;20139;-55
2023/06/03 19:25:53;;;;;;;1.85;1.00;;;17.60;60.80;;;;;;7328963;32;20272;-55
2023/06/03 19:29:55;;;;;;;4.75;0.85;;;17.40;61.40;;;;;;7329982;32;20130;-56
2023/06/03 19:33:58;;;;;;;2.03;0.80;;;17.30;62.10;;;;;;7329744;32;20124;-56
2023/06/03 19:38:00;;;;;;;1.98;0.80;;;17.20;62.70;;;;;;7325382;32;20857;-56
2023/06/03 19:42:02;;;;;;;1.25;0.77;;;17.10;63.50;;;;;;7330320;32;20792;-56
2023/06/03 19:46:04;;;;;;;3.40;0.43;;;16.90;63.80;;;;;;7329205;32;20183;-57
2023/06/03 19:50:06;;;;;;;1.67;0.70;;;16.90;63.20;;;;;;7327145;32;20320;-56
2023/06/03 19:54:11;;;;;;;2.92;1.50;;;16.90;63.90;;;;;;7333865;32;20114;-56
2023/06/03 19:58:13;;;;;;;3.12;0.90;;;16.70;65.00;;;;;;7330731;32;20845;-55
2023/06/03 20:02:15;;;;;;;6.57;1.10;;;16.50;65.60;;;;;;7331452;32;20139;-56
2023/06/03 20:06:17;;;;;;;2.55;0.80;;;16.50;66.30;;;;;;7330738;32;20103;-56
2023/06/03 20:10:20;;;;;;;1.80;0.88;;;16.50;64.00;;;;;;7312797;32;20107;-55
2023/06/03 20:14:21;;;;;;;3.30;1.50;;;16.40;63.60;;;;;;7328176;32;20534;-54
2023/06/03 20:18:23;;;;;;;2.05;1.00;;;16.30;65.10;;;;;;7327907;32;20262;-54
2023/06/03 20:22:25;;;;;;;2.33;0.62;;;16.10;66.30;;;;;;7330091;32;20573;-56
2023/06/03 20:26:27;;;;;;;3.53;0.80;;;16.00;65.20;;;;;;7330157;32;20115;-55
2023/06/03 20:30:33;;;;;;;1.27;0.60;;;15.90;64.70;;;;;;7316204;32;20111;-53
2023/06/03 20:34:35;;;;;;;3.30;0.90;;;15.90;65.00;;;;;;7319353;32;20254;-55
2023/06/03 20:38:37;;;;;;;1.48;0.85;;;15.90;65.50;;;;;;7328685;32;20127;-55
2023/06/03 20:42:38;;;;;;;1.55;0.75;;;15.70;66.40;;;;;;7329430;32;20279;-55
2023/06/03 20:46:40;;;;;;;1.95;0.80;;;15.60;67.60;;;;;;7307799;32;20103;-55
2023/06/03 20:50:42;;;;;;;2.35;0.80;;;15.50;67.90;;;;;;7327539;32;20285;-54
2023/06/03 20:54:44;;;;;;;1.45;0.75;;;15.40;68.70;;;;;;7308170;32;20207;-55
2023/06/03 20:58:46;;;;;;;1.33;0.80;;;15.30;68.40;;;;;;7326647;32;20180;-55
2023/06/03 21:02:48;;;;;;;2.45;1.10;;;15.20;69.50;;;;;;7325628;32;20130;-55
2023/06/03 21:06:50;;;;;;;2.60;1.10;;;15.00;69.50;;;;;;7323865;32;20165;-54